Time;durP1;ratioP1;P1;durP2;ratioP2;P2;SDS_P1;SDS_P2;PMS_P1;PMS_P2;Temp;Humidity;BMP_temperature;BMP_pressure;BME280_temperature;BME280_humidity;BME280_pressure;Samples;Min_cycle;Max_cycle;Signal;HPM_P1;HPM_P2
2022/03/18 00:02:03;;;;;;;7.78;4.38;;;;;;;3.56;57.82;100813.06;5091965;28;20075;-81
2022/03/18 00:04:34;;;;;;;8.15;4.75;;;;;;;3.66;56.66;100808.09;5091608;28;20040;-81
2022/03/18 00:07:07;;;;;;;6.93;4.07;;;;;;;3.65;56.04;100802.94;5094242;28;20052;-83
2022/03/18 00:09:40;;;;;;;15.38;6.20;;;;;;;3.75;55.92;100799.69;5091683;28;20115;-85
2022/03/18 00:12:12;;;;;;;7.45;4.15;;;;;;;3.31;56.35;100791.00;5091471;28;20070;-86
2022/03/18 00:14:47;;;;;;;22.92;6.65;;;;;;;3.54;55.81;100778.56;5091944;28;20048;-84
2022/03/18 00:22:21;;;;;;;30.48;10.00;;;;;;;3.60;55.74;100789.03;4912110;28;20049;-85
2022/03/18 00:24:52;;;;;;;10.35;6.00;;;;;;;3.55;55.60;100801.88;5005854;28;20042;-84
2022/03/18 00:27:23;;;;;;;10.35;5.38;;;;;;;3.72;55.46;100794.47;5005805;28;20054;-85
2022/03/18 00:29:54;;;;;;;9.80;5.32;;;;;;;3.75;55.27;100789.34;5007519;28;20070;-84
2022/03/18 00:32:26;;;;;;;18.52;6.78;;;;;;;3.80;54.75;100787.72;5005789;28;20084;-83
2022/03/18 00:34:56;;;;;;;13.93;5.68;;;;;;;3.98;54.55;100786.34;5005013;28;20088;-84
2022/03/18 00:37:29;;;;;;;11.43;5.32;;;;;;;4.17;54.36;100788.41;4999142;28;20061;-84
2022/03/18 00:39:59;;;;;;;33.85;10.05;;;;;;;4.40;54.38;100790.53;5005930;28;20421;-85
2022/03/18 00:42:31;;;;;;;11.45;6.00;;;;;;;4.32;53.83;100782.66;5003521;28;20042;-85
2022/03/18 00:45:03;;;;;;;7.55;5.13;;;;;;;3.96;54.16;100725.97;5006670;28;20050;-85
2022/03/18 00:53:11;;;;;;;7.13;3.95;;;;;;;4.08;52.61;100780.47;5092751;28;20044;-86
2022/03/18 00:55:41;;;;;;;8.32;4.65;;;;;;;4.07;53.42;100791.69;5089872;28;20040;-81
2022/03/18 00:58:12;;;;;;;13.00;5.30;;;;;;;3.85;53.77;100780.94;5088373;28;20048;-82
2022/03/18 01:00:43;;;;;;;6.10;3.88;;;;;;;3.79;54.40;100772.16;5080740;28;20047;-82
2022/03/18 01:03:15;;;;;;;11.25;5.55;;;;;;;4.08;54.82;100788.25;5093048;28;20047;-82
2022/03/18 01:05:46;;;;;;;10.93;5.53;;;;;;;4.32;54.11;100783.50;5096888;28;20048;-81
2022/03/18 01:08:18;;;;;;;14.45;5.95;;;;;;;4.48;53.69;100774.28;5094199;28;20249;-81
2022/03/18 01:10:50;;;;;;;8.15;4.22;;;;;;;4.61;53.32;100775.34;5088878;28;20231;-82
2022/03/18 01:13:20;;;;;;;9.35;4.07;;;;;;;4.64;52.63;100783.19;5084700;28;20120;-81
2022/03/18 01:15:51;;;;;;;7.45;4.03;;;;;;;4.22;52.75;100731.56;5085448;28;20079;-81
2022/03/18 01:18:22;;;;;;;8.27;3.85;;;;;;;3.96;53.18;100715.63;5088296;28;20059;-81
2022/03/18 01:20:56;;;;;;;13.20;5.22;;;;;;;4.10;53.96;100760.69;5101549;28;20336;-81
2022/03/18 01:23:28;;;;;;;6.82;4.13;;;;;;;4.29;54.14;100764.47;5095331;28;20072;-82
2022/03/18 01:25:59;;;;;;;8.07;3.75;;;;;;;4.37;53.90;100768.06;5095187;28;20072;-81
2022/03/18 01:28:30;;;;;;;6.80;3.78;;;;;;;4.32;53.65;100768.00;5096986;28;20047;-81
2022/03/18 01:31:00;;;;;;;6.45;3.70;;;;;;;4.36;54.00;100768.03;5085019;28;20103;-82
2022/03/18 01:33:33;;;;;;;5.07;3.17;;;;;;;4.51;54.02;100763.09;5094136;28;20059;-82
2022/03/18 01:36:04;;;;;;;5.15;3.47;;;;;;;4.71;53.00;100766.00;5081395;28;20312;-81
2022/03/18 01:38:36;;;;;;;6.80;4.13;;;;;;;4.80;52.70;100745.47;5086342;28;20391;-81
2022/03/18 01:41:07;;;;;;;7.07;3.83;;;;;;;4.72;52.02;100747.94;5088304;28;20104;-81
2022/03/18 01:43:42;;;;;;;7.85;4.35;;;;;;;4.60;52.40;100737.38;5091967;28;20067;-81
2022/03/18 01:46:13;;;;;;;6.25;3.60;;;;;;;4.70;52.85;100723.72;5084817;28;20111;-82
2022/03/18 01:48:45;;;;;;;6.25;3.80;;;;;;;4.70;52.41;100728.91;5097210;28;20044;-82
2022/03/18 01:51:16;;;;;;;7.00;3.78;;;;;;;4.50;52.64;100719.97;5101290;28;20040;-82
2022/03/18 01:54:44;;;;;;;6.55;3.63;;;;;;;4.63;53.24;100732.25;5099908;28;20103;-82
2022/03/18 01:56:40;;;;;;;7.60;3.75;;;;;;;4.64;53.20;100728.84;5085383;28;20232;-82
2022/03/18 01:59:10;;;;;;;7.57;4.22;;;;;;;4.70;53.17;100723.72;5093754;28;20075;-82
2022/03/18 02:01:41;;;;;;;5.82;3.28;;;;;;;4.67;53.70;100718.50;5092778;28;20098;-82
2022/03/18 02:04:12;;;;;;;6.85;3.47;;;;;;;4.71;52.92;100719.41;5098989;28;20081;-83
2022/03/18 02:06:43;;;;;;;5.38;3.30;;;;;;;4.32;53.08;100664.50;5097356;28;20050;-82
2022/03/18 02:09:16;;;;;;;7.90;3.05;;;;;;;4.61;53.53;100700.28;5097103;28;20049;-82
2022/03/18 02:11:47;;;;;;;6.68;3.60;;;;;;;5.05;53.68;100728.53;5085366;28;20076;-82
2022/03/18 02:14:31;;;;;;;6.22;2.75;;;;;;;5.26;52.30;100714.13;5091467;28;20059;-82
2022/03/18 02:17:04;;;;;;;7.32;3.10;;;;;;;5.32;51.71;100719.41;5092948;28;20052;-82
2022/03/18 02:19:35;;;;;;;3.97;2.80;;;;;;;5.31;51.58;100718.50;5089304;28;20040;-83
2022/03/18 02:22:11;;;;;;;4.93;2.95;;;;;;;4.93;51.10;100637.75;5080959;28;20048;-82
2022/03/18 02:24:45;;;;;;;8.50;4.10;;;;;;;4.95;51.91;100673.16;5087898;28;20041;-81
2022/03/18 02:27:17;;;;;;;8.80;3.70;;;;;;;5.00;53.09;100717.25;5087333;28;20087;-83
2022/03/18 02:29:48;;;;;;;7.70;3.50;;;;;;;4.72;53.06;100711.69;5100673;28;20292;-83
2022/03/18 02:32:19;;;;;;;4.57;2.92;;;;;;;4.58;53.67;100708.00;5090879;28;20254;-83
2022/03/18 02:34:50;;;;;;;5.32;3.20;;;;;;;4.37;53.50;100686.97;5092190;28;20059;-83
2022/03/18 02:37:21;;;;;;;4.93;3.03;;;;;;;4.65;54.23;100694.31;5086306;28;20115;-83
2022/03/18 02:39:53;;;;;;;4.15;2.42;;;;;;;4.99;54.03;100689.59;5104783;28;20401;-83
2022/03/18 02:42:24;;;;;;;3.95;2.42;;;;;;;5.11;52.97;100678.53;5104210;28;20076;-83
2022/03/18 02:44:55;;;;;;;4.88;2.13;;;;;;;5.34;51.75;100696.94;5093575;28;20047;-83
2022/03/18 02:47:26;;;;;;;3.35;1.98;;;;;;;5.41;52.41;100703.94;5104481;28;20060;-83
2022/03/18 02:49:57;;;;;;;5.35;2.80;;;;;;;5.36;52.82;100701.28;5091629;28;20044;-83
2022/03/18 02:52:29;;;;;;;3.28;1.90;;;;;;;5.05;52.94;100694.88;5098477;28;20332;-83
2022/03/18 02:55:02;;;;;;;2.70;1.80;;;;;;;4.78;53.64;100694.50;5087080;28;20085;-83
2022/03/18 02:57:33;;;;;;;2.90;1.90;;;;;;;4.71;54.77;100691.81;5094557;28;20048;-83
2022/03/18 03:00:05;;;;;;;2.38;1.90;;;;;;;4.54;55.72;100690.69;5094359;28;20042;-83
2022/03/18 03:02:36;;;;;;;3.80;2.15;;;;;;;4.53;56.65;100683.78;5093667;28;20413;-83
2022/03/18 03:08:01;;;;;;;3.28;1.80;;;;;;;4.63;56.15;100680.47;5101020;28;20076;-83
2022/03/18 03:10:36;;;;;;;2.15;1.70;;;;;;;4.48;56.23;100675.09;5098695;28;20053;-83
2022/03/18 03:13:10;;;;;;;3.53;2.13;;;;;;;4.31;56.93;100655.00;5085850;28;20049;-83
2022/03/18 03:15:41;;;;;;;4.72;2.72;;;;;;;4.29;57.62;100679.09;5083906;28;20348;-83
2022/03/18 03:18:12;;;;;;;4.05;2.75;;;;;;;4.11;58.29;100679.66;5083973;28;20044;-84
2022/03/18 03:20:43;;;;;;;5.30;2.83;;;;;;;3.96;58.95;100675.09;5089598;28;20265;-83
2022/03/18 03:23:13;;;;;;;3.13;2.50;;;;;;;3.76;59.53;100672.19;5103848;28;20075;-84
2022/03/18 03:25:46;;;;;;;3.28;2.30;;;;;;;3.51;60.20;100654.50;5102346;28;20055;-84
2022/03/18 03:28:17;;;;;;;3.80;2.70;;;;;;;3.67;60.28;100672.03;5094131;28;20112;-83
2022/03/18 03:30:48;;;;;;;3.88;2.70;;;;;;;3.35;60.61;100632.69;5096171;28;20046;-83
2022/03/18 03:33:19;;;;;;;2.85;2.30;;;;;;;3.43;61.21;100668.13;5095917;28;20086;-84
2022/03/18 03:35:54;;;;;;;3.13;2.40;;;;;;;3.26;61.36;100648.00;5089451;28;20054;-83
2022/03/18 03:38:25;;;;;;;4.75;2.80;;;;;;;3.46;61.60;100668.19;5092382;28;20086;-83
2022/03/18 03:40:58;;;;;;;4.53;3.22;;;;;;;3.84;61.77;100655.13;5093267;28;20071;-83
2022/03/18 03:43:28;;;;;;;5.35;3.78;;;;;;;4.05;61.09;100653.72;5096157;28;20044;-84
2022/03/18 03:45:59;;;;;;;4.60;2.95;;;;;;;4.03;61.21;100655.41;5094028;28;20348;-82
2022/03/18 03:48:30;;;;;;;2.88;2.30;;;;;;;4.08;60.52;100639.13;5096224;28;20058;-84
2022/03/18 03:51:01;;;;;;;3.47;2.33;;;;;;;4.10;60.25;100646.91;5094181;28;20047;-84
2022/03/18 03:53:32;;;;;;;4.47;2.88;;;;;;;4.27;59.93;100629.06;5093290;28;20396;-84
2022/03/18 03:56:05;;;;;;;3.25;2.72;;;;;;;4.53;59.62;100642.38;5090931;28;20104;-84
2022/03/18 03:58:36;;;;;;;3.80;2.88;;;;;;;4.74;58.83;100642.69;5099172;28;20075;-84
2022/03/18 04:01:06;;;;;;;3.85;3.00;;;;;;;4.69;58.63;100648.63;5105623;28;20403;-84
2022/03/18 04:03:38;;;;;;;5.45;3.75;;;;;;;4.65;58.92;100647.72;5105834;28;20099;-84
2022/03/18 04:06:09;;;;;;;5.70;3.53;;;;;;;4.60;59.93;100636.44;5111542;28;20117;-84
2022/03/18 04:08:40;;;;;;;4.93;3.67;;;;;;;4.43;59.63;100624.97;5103604;28;20045;-84
2022/03/18 04:11:12;;;;;;;4.60;3.38;;;;;;;4.46;60.10;100645.72;5108874;28;20116;-84
2022/03/18 04:13:43;;;;;;;3.50;2.70;;;;;;;4.56;58.62;100642.41;5106665;28;20055;-84
2022/03/18 04:16:13;;;;;;;4.75;3.13;;;;;;;4.26;59.02;100617.84;5107360;28;20059;-84
2022/03/18 04:18:44;;;;;;;4.78;3.58;;;;;;;4.53;58.77;100640.66;5108425;28;20042;-85
2022/03/18 04:21:15;;;;;;;4.93;3.35;;;;;;;4.56;58.12;100632.06;5105398;28;20044;-84
2022/03/18 04:23:46;;;;;;;3.88;2.58;;;;;;;4.35;58.01;100616.25;5114754;28;20024;-85
2022/03/18 04:26:18;;;;;;;3.80;2.72;;;;;;;4.38;57.09;100634.41;5112489;28;20028;-84
2022/03/18 04:28:49;;;;;;;3.72;2.83;;;;;;;3.97;57.65;100613.91;5108754;28;20092;-86
2022/03/18 04:31:19;;;;;;;3.33;2.70;;;;;;;4.17;57.60;100633.22;5110425;28;20103;-86
2022/03/18 04:33:50;;;;;;;3.60;2.67;;;;;;;4.18;57.89;100634.09;5111970;28;20054;-85
2022/03/18 04:36:21;;;;;;;5.05;3.40;;;;;;;4.07;57.83;100595.16;5102006;28;20059;-85
2022/03/18 04:38:52;;;;;;;5.07;3.28;;;;;;;4.23;58.08;100633.31;5083955;28;20437;-84
2022/03/18 04:41:24;;;;;;;6.40;3.35;;;;;;;3.83;58.19;100627.50;5088871;28;20044;-85
2022/03/18 04:43:55;;;;;;;5.30;3.08;;;;;;;3.66;58.45;100634.97;5083224;28;20107;-85
2022/03/18 04:46:28;;;;;;;4.30;3.05;;;;;;;3.42;59.00;100625.06;5092351;28;20059;-84
2022/03/18 04:48:59;;;;;;;6.00;3.35;;;;;;;3.20;59.94;100622.94;5088200;28;20049;-85
2022/03/18 04:51:31;;;;;;;7.85;4.20;;;;;;;3.23;60.46;100628.16;5103307;28;20044;-84
2022/03/18 04:54:01;;;;;;;7.20;3.90;;;;;;;3.27;60.54;100624.78;5089570;28;20328;-84
2022/03/18 04:59:22;;;;;;;7.75;3.40;;;;;;;3.58;60.53;100639.13;5096320;28;20247;-84
2022/03/18 05:01:53;;;;;;;5.13;3.28;;;;;;;3.58;59.85;100625.34;5101488;28;20054;-84
2022/03/18 05:04:24;;;;;;;3.97;3.00;;;;;;;3.34;60.25;100605.97;5092939;28;20044;-84
2022/03/18 05:06:54;;;;;;;6.53;3.08;;;;;;;3.30;60.68;100632.59;5085362;28;20048;-85
2022/03/18 05:09:25;;;;;;;6.95;3.15;;;;;;;3.20;61.23;100628.09;5101050;28;20083;-85
2022/03/18 05:11:58;;;;;;;5.03;3.28;;;;;;;2.93;61.56;100633.56;5100512;28;20040;-85
2022/03/18 05:14:28;;;;;;;4.90;2.90;;;;;;;2.71;62.71;100627.09;5101568;28;20086;-84
2022/03/18 05:16:59;;;;;;;6.57;3.10;;;;;;;2.54;63.03;100632.75;5100746;28;20044;-84
2022/03/18 05:19:32;;;;;;;3.95;2.95;;;;;;;2.44;64.31;100633.38;5101343;28;20048;-85
2022/03/18 05:22:03;;;;;;;4.28;2.70;;;;;;;2.27;65.31;100639.84;5097019;28;20040;-84
2022/03/18 05:24:34;;;;;;;4.85;2.97;;;;;;;2.14;66.16;100644.72;5090161;28;20044;-84
2022/03/18 05:27:06;;;;;;;4.60;3.10;;;;;;;2.00;66.98;100635.81;5093571;28;20324;-83
2022/03/18 05:29:37;;;;;;;5.78;3.63;;;;;;;2.06;67.81;100641.09;5089680;28;20079;-82
2022/03/18 05:32:09;;;;;;;6.30;3.58;;;;;;;2.25;67.95;100636.38;5100687;28;20228;-83
2022/03/18 05:34:40;;;;;;;6.05;3.30;;;;;;;2.26;68.15;100638.13;5098332;28;20082;-82
2022/03/18 05:37:11;;;;;;;5.65;3.17;;;;;;;2.35;68.02;100639.22;5102169;28;20051;-81
2022/03/18 05:39:41;;;;;;;9.40;3.53;;;;;;;2.32;68.30;100633.09;5094347;28;20098;-83
2022/03/18 05:42:14;;;;;;;7.80;3.25;;;;;;;2.42;68.75;100640.22;5102056;28;20040;-81
2022/03/18 05:44:45;;;;;;;6.07;3.55;;;;;;;2.52;68.65;100642.19;5102290;28;20044;-81
2022/03/18 05:47:15;;;;;;;6.25;3.35;;;;;;;2.59;68.28;100646.59;5102499;28;20044;-80
2022/03/18 05:49:46;;;;;;;8.88;3.72;;;;;;;2.41;67.58;100633.31;5102599;28;20052;-80
2022/03/18 05:52:17;;;;;;;7.63;3.60;;;;;;;2.34;67.68;100636.59;5090659;28;20051;-80
2022/03/18 05:54:48;;;;;;;7.97;3.95;;;;;;;2.26;68.00;100623.50;5093844;28;20044;-81
2022/03/18 05:57:19;;;;;;;6.80;4.03;;;;;;;2.30;68.16;100633.06;5088704;28;20055;-81
2022/03/18 05:59:49;;;;;;;6.00;3.35;;;;;;;2.43;67.99;100621.31;5093185;28;20078;-81
2022/03/18 06:02:20;;;;;;;5.38;3.30;;;;;;;2.48;67.44;100627.47;5090917;28;20193;-81
2022/03/18 06:04:51;;;;;;;8.68;3.20;;;;;;;2.52;67.61;100621.53;5109746;28;20056;-81
2022/03/18 06:07:22;;;;;;;8.70;3.45;;;;;;;2.58;67.26;100626.81;5120007;28;20050;-81
2022/03/18 06:12:42;;;;;;;5.55;2.50;;;;;;;2.20;67.13;100625.06;5107596;28;20035;-81
2022/03/18 06:15:13;;;;;;;5.13;3.22;;;;;;;2.13;67.74;100637.81;5108502;28;20035;-82
2022/03/18 06:17:43;;;;;;;4.57;2.70;;;;;;;1.99;68.19;100618.56;5108744;28;20029;-81
2022/03/18 06:20:14;;;;;;;4.90;3.08;;;;;;;1.98;68.36;100632.31;5109789;28;20044;-81
2022/03/18 06:22:45;;;;;;;4.15;2.45;;;;;;;2.02;68.52;100628.97;5114644;28;20048;-81
2022/03/18 06:25:16;;;;;;;4.10;3.05;;;;;;;1.89;68.46;100627.78;5115902;28;20084;-82
2022/03/18 06:27:48;;;;;;;4.65;2.90;;;;;;;1.97;68.79;100621.94;5104449;28;20040;-82
2022/03/18 06:30:19;;;;;;;4.70;3.28;;;;;;;2.05;68.20;100626.47;5100325;28;20047;-82
2022/03/18 06:32:50;;;;;;;4.95;3.30;;;;;;;2.15;68.10;100625.84;5109304;28;20039;-83
2022/03/18 06:35:20;;;;;;;6.32;3.92;;;;;;;2.27;68.35;100625.28;5105382;28;20090;-83
2022/03/18 06:37:51;;;;;;;5.78;3.83;;;;;;;2.38;68.28;100628.09;5100488;28;20067;-84
2022/03/18 06:40:21;;;;;;;4.60;3.00;;;;;;;2.14;68.17;100603.47;5094552;28;20244;-84
2022/03/18 06:42:54;;;;;;;4.32;2.67;;;;;;;2.21;67.87;100624.25;5095030;28;20064;-83
2022/03/18 06:45:25;;;;;;;4.57;2.53;;;;;;;2.15;68.47;100615.53;5101666;28;20075;-83
2022/03/18 06:47:56;;;;;;;7.30;3.00;;;;;;;2.34;68.67;100621.09;5103139;28;20044;-83
2022/03/18 06:50:26;;;;;;;7.95;3.60;;;;;;;2.36;67.41;100634.91;5096136;28;20043;-84
2022/03/18 06:52:57;;;;;;;8.88;5.20;;;;;;;2.45;67.81;100632.56;5097960;28;20052;-83
2022/03/18 06:55:28;;;;;;;5.32;3.42;;;;;;;2.63;67.13;100628.63;5105272;28;20335;-84
2022/03/18 06:58:00;;;;;;;4.13;2.25;;;;;;;2.62;66.32;100637.19;5104312;28;20244;-84
2022/03/18 07:00:31;;;;;;;7.45;4.60;;;;;;;2.59;66.04;100633.72;5097295;28;20336;-84
2022/03/18 07:03:02;;;;;;;9.77;6.55;;;;;;;2.54;65.94;100635.31;5102983;28;20044;-84
2022/03/18 07:05:33;;;;;;;8.98;5.15;;;;;;;2.59;65.69;100638.88;5096767;28;20048;-84
2022/03/18 07:08:04;;;;;;;7.28;3.53;;;;;;;2.62;65.42;100632.03;5104484;28;20055;-84
2022/03/18 07:10:35;;;;;;;6.80;3.30;;;;;;;2.46;65.55;100621.38;5101526;28;20079;-84
2022/03/18 07:13:07;;;;;;;5.75;2.40;;;;;;;2.32;65.42;100627.94;5096388;28;20241;-84
2022/03/18 07:15:38;;;;;;;13.20;11.80;;;;;;;2.27;65.20;100634.69;5092022;28;20044;-84
2022/03/18 07:18:07;;;;;;;11.45;9.98;;;;;;;2.18;65.86;100629.34;5104149;28;20072;-84
2022/03/18 07:20:40;;;;;;;4.28;2.90;;;;;;;2.10;65.53;100648.06;5097506;28;20056;-84
2022/03/18 07:23:12;;;;;;;4.97;2.60;;;;;;;2.11;65.12;100654.97;5100395;28;20055;-84
2022/03/18 07:25:44;;;;;;;3.67;2.55;;;;;;;2.00;64.89;100656.41;5095952;28;20103;-84
2022/03/18 07:28:20;;;;;;;3.88;2.20;;;;;;;1.85;65.29;100651.75;5084220;28;20056;-84
2022/03/18 07:30:54;;;;;;;7.93;3.53;;;;;;;1.78;66.00;100660.16;5083721;28;20063;-84
2022/03/18 07:33:24;;;;;;;4.95;2.75;;;;;;;1.67;65.76;100652.16;5097018;28;20239;-85
2022/03/18 07:35:56;;;;;;;3.70;2.30;;;;;;;1.67;65.71;100657.31;5100256;28;20075;-84
2022/03/18 07:38:27;;;;;;;5.72;3.28;;;;;;;1.64;65.87;100664.94;5100571;28;20108;-85
2022/03/18 07:40:57;;;;;;;6.57;2.80;;;;;;;1.56;66.05;100663.88;5096143;28;20044;-86
2022/03/18 07:43:30;;;;;;;13.75;4.38;;;;;;;1.29;66.49;100644.28;5091091;28;20075;-83
2022/03/18 07:46:01;;;;;;;7.50;3.28;;;;;;;1.20;66.76;100674.94;5105093;28;20044;-84
2022/03/18 07:48:32;;;;;;;4.88;2.50;;;;;;;1.09;67.94;100671.16;5092053;28;20071;-84
2022/03/18 07:51:02;;;;;;;3.75;2.60;;;;;;;0.92;68.03;100678.38;5094497;28;20123;-83
2022/03/18 07:53:33;;;;;;;6.85;2.83;;;;;;;0.70;68.70;100656.34;5088049;28;20400;-84
2022/03/18 07:56:04;;;;;;;8.27;3.20;;;;;;;0.75;69.31;100675.34;5092992;28;20100;-85
2022/03/18 07:58:37;;;;;;;8.50;3.53;;;;;;;0.83;69.58;100673.84;5093116;28;20111;-85
2022/03/18 08:01:07;;;;;;;9.48;4.22;;;;;;;0.78;70.11;100660.00;5087942;28;20049;-85
2022/03/18 08:03:46;;;;;;;6.38;3.25;;;;;;;0.75;70.04;100670.19;5090103;28;20334;-88
2022/03/18 08:06:55;;;;;;;10.27;4.28;;;;;;;0.33;69.77;100598.66;5018199;28;20042;-83
2022/03/18 08:09:25;;;;;;;8.50;4.78;;;;;;;0.54;70.29;100660.13;5004699;28;20064;-83
2022/03/18 08:11:56;;;;;;;15.57;8.13;;;;;;;0.47;70.18;100657.31;5014062;28;20057;-83
2022/03/18 08:14:29;;;;;;;13.80;7.88;;;;;;;0.51;69.94;100670.31;5005019;28;20062;-84
2022/03/18 08:17:00;;;;;;;12.48;7.97;;;;;;;0.42;69.82;100675.16;5004282;28;20189;-83
2022/03/18 08:19:31;;;;;;;15.43;7.43;;;;;;;0.37;69.98;100669.88;5007044;28;20053;-83
2022/03/18 08:22:04;;;;;;;8.80;5.30;;;;;;;0.35;70.36;100675.78;5016103;28;20113;-83
2022/03/18 08:24:34;;;;;;;8.38;4.60;;;;;;;0.29;70.38;100675.63;5010371;28;20076;-84
2022/03/18 08:27:08;;;;;;;8.80;5.22;;;;;;;0.27;70.50;100680.69;5001154;28;20390;-83
2022/03/18 08:29:45;;;;;;;9.27;4.07;;;;;;;0.24;70.36;100683.16;5074019;28;20049;-83
2022/03/18 08:32:21;;;;;;;5.80;2.92;;;;;;;0.17;69.72;100679.53;5071503;28;20052;-82
2022/03/18 08:34:54;;;;;;;5.30;3.20;;;;;;;0.09;69.05;100691.25;5099477;28;20080;-82
2022/03/18 08:40:18;;;;;;;5.57;2.38;;;;;;;-0.39;66.82;100669.94;5086980;28;20040;-83
2022/03/18 08:42:49;;;;;;;4.63;1.92;;;;;;;-0.37;66.15;100714.53;5076994;28;20103;-82
2022/03/18 08:45:21;;;;;;;4.55;1.90;;;;;;;-0.52;65.86;100720.88;5099268;28;20103;-82
2022/03/18 08:47:53;;;;;;;2.45;2.00;;;;;;;-0.61;66.25;100720.53;5086835;28;20063;-82
2022/03/18 08:50:25;;;;;;;2.65;2.10;;;;;;;-0.80;66.23;100708.75;5088356;28;20135;-83
2022/03/18 08:52:57;;;;;;;4.13;2.20;;;;;;;-0.72;65.67;100726.97;5085893;28;20308;-83
2022/03/18 08:55:28;;;;;;;5.10;2.20;;;;;;;-0.77;66.45;100728.50;5084535;28;20115;-82
2022/03/18 08:57:58;;;;;;;2.60;2.10;;;;;;;-0.85;66.74;100730.75;5081782;28;20044;-81
2022/03/18 09:00:31;;;;;;;3.75;2.22;;;;;;;-0.94;67.07;100731.31;5090858;28;20040;-82
2022/03/18 09:03:01;;;;;;;4.00;2.55;;;;;;;-0.91;67.34;100746.81;5087168;28;20083;-83
2022/03/18 09:05:32;;;;;;;5.32;2.30;;;;;;;-1.16;67.33;100728.75;5092378;28;20291;-83
2022/03/18 09:08:04;;;;;;;3.05;2.30;;;;;;;-1.09;66.98;100743.56;5088094;28;20082;-82
2022/03/18 09:10:35;;;;;;;5.68;3.08;;;;;;;-1.09;67.39;100749.53;5097419;28;20367;-81
2022/03/18 09:13:10;;;;;;;6.22;3.25;;;;;;;-1.04;67.80;100757.44;5098157;28;20055;-82
2022/03/18 09:15:43;;;;;;;7.72;3.78;;;;;;;-1.03;68.06;100761.72;5095374;28;20055;-82
2022/03/18 09:18:14;;;;;;;15.60;5.95;;;;;;;-0.88;68.49;100754.59;5094820;28;20068;-82
2022/03/18 09:20:46;;;;;;;22.73;7.15;;;;;;;-0.88;69.32;100752.03;5096731;28;20059;-82
2022/03/18 09:23:17;;;;;;;36.72;12.15;;;;;;;-0.89;69.64;100758.00;5097228;28;20055;-82
2022/03/18 09:25:48;;;;;;;15.23;6.22;;;;;;;-0.91;70.10;100754.50;5087058;28;20052;-82
2022/03/18 09:28:19;;;;;;;29.92;8.90;;;;;;;-0.87;70.14;100753.81;5082686;28;20083;-82
2022/03/18 09:30:54;;;;;;;17.83;6.28;;;;;;;-1.00;69.07;100746.47;5082572;28;20360;-82
2022/03/18 09:33:25;;;;;;;5.93;3.50;;;;;;;-1.01;68.48;100760.09;5093680;28;20108;-82
2022/03/18 09:35:56;;;;;;;6.13;3.05;;;;;;;-0.95;68.38;100765.47;5084005;28;20112;-83
2022/03/18 09:38:26;;;;;;;6.32;3.30;;;;;;;-1.14;67.59;100737.38;5101642;28;20066;-83
2022/03/18 09:40:57;;;;;;;8.13;3.90;;;;;;;-1.14;68.16;100752.75;5094367;28;20112;-82
2022/03/18 09:43:35;;;;;;;8.02;3.20;;;;;;;-1.09;68.55;100764.06;5092558;28;20064;-82
2022/03/18 09:46:09;;;;;;;15.27;4.88;;;;;;;-1.12;68.66;100761.38;5085932;28;20075;-82
2022/03/18 09:49:01;;;;;;;11.93;4.03;;;;;;;-1.10;70.06;100749.47;5096119;28;20037;-82
2022/03/18 09:51:32;;;;;;;8.10;3.20;;;;;;;-1.04;70.79;100749.72;5098552;28;20107;-82
2022/03/18 09:54:19;;;;;;;6.78;2.42;;;;;;;-1.19;71.52;100736.31;5097818;28;20055;-84
2022/03/18 09:56:51;;;;;;;5.05;2.65;;;;;;;-1.14;71.89;100753.63;5097725;28;20048;-83
2022/03/18 09:59:23;;;;;;;5.03;2.50;;;;;;;-1.26;71.85;100732.63;5092782;28;20071;-84
2022/03/18 10:02:29;;;;;;;3.58;2.03;;;;;;;-1.11;72.02;100747.75;5096005;28;20083;-84
2022/03/18 10:05:01;;;;;;;8.73;2.50;;;;;;;-1.17;71.59;100737.25;5084679;28;20115;-84
2022/03/18 10:07:32;;;;;;;4.55;2.53;;;;;;;-1.24;71.52;100735.28;5091139;28;20052;-85
2022/03/18 10:10:10;;;;;;;4.38;2.67;;;;;;;-1.24;71.51;100740.41;5091947;28;20044;-85
2022/03/18 10:12:41;;;;;;;3.30;2.42;;;;;;;-1.24;71.90;100740.41;5096169;28;20040;-84
2022/03/18 10:15:17;;;;;;;4.28;2.58;;;;;;;-1.16;72.09;100744.13;5101113;28;20044;-83
2022/03/18 10:17:51;;;;;;;4.15;2.50;;;;;;;-1.71;71.78;100650.56;5083911;28;20345;-85
2022/03/18 10:20:32;;;;;;;3.58;2.22;;;;;;;-1.42;71.35;100705.53;5085943;28;20044;-84
2022/03/18 10:23:20;;;;;;;5.45;3.20;;;;;;;-1.16;71.35;100749.25;5100012;28;20040;-83
2022/03/18 10:25:52;;;;;;;4.65;2.95;;;;;;;-1.15;70.84;100756.13;5092447;28;20074;-83
2022/03/18 10:28:40;;;;;;;5.90;4.15;;;;;;;-1.17;71.17;100747.53;5090767;28;20044;-83
2022/03/18 10:31:19;;;;;;;6.63;4.20;;;;;;;-1.58;70.65;100677.56;5083885;28;20059;-85
2022/03/18 10:39:36;;;;;;;9.40;5.13;;;;;;;-1.38;70.74;100722.78;5102558;28;20115;-85
2022/03/18 10:42:16;;;;;;;10.73;4.95;;;;;;;-1.14;70.38;100747.63;5098610;28;20058;-85
2022/03/18 10:44:49;;;;;;;5.97;3.65;;;;;;;-1.67;69.90;100651.56;5093773;28;20040;-85
2022/03/18 10:47:28;;;;;;;12.82;5.88;;;;;;;-1.13;70.76;100739.09;5103574;28;20107;-85
2022/03/18 10:50:19;;;;;;;22.15;9.88;;;;;;;-1.31;70.23;100699.13;5074599;28;20040;-85
2022/03/18 10:53:10;;;;;;;25.27;11.38;;;;;;;-1.11;70.33;100737.47;5092253;28;20044;-86
2022/03/18 10:55:42;;;;;;;24.75;11.48;;;;;;;-1.16;70.32;100755.25;5099513;28;20044;-84
2022/03/18 10:58:15;;;;;;;22.90;11.02;;;;;;;-1.40;70.49;100724.44;5102041;28;20071;-88
2022/03/18 11:00:47;;;;;;;22.10;10.20;;;;;;;-1.28;70.34;100738.53;5100647;28;20372;-88
2022/03/18 11:03:28;;;;;;;9.52;4.43;;;;;;;-1.29;70.10;100736.78;5092468;28;20103;-88
2022/03/18 11:06:03;;;;;;;4.55;2.80;;;;;;;-1.70;70.00;100669.38;5085885;28;20045;-88
2022/03/18 11:08:40;;;;;;;6.07;2.85;;;;;;;-1.33;69.85;100731.50;5089808;28;20361;-88
2022/03/18 11:11:15;;;;;;;9.25;4.68;;;;;;;-1.42;69.60;100736.31;5096802;28;20052;-89
2022/03/18 11:13:53;;;;;;;16.00;8.65;;;;;;;-1.47;69.48;100732.69;5088326;28;20095;-87
2022/03/18 11:16:25;;;;;;;11.00;6.07;;;;;;;-1.60;69.58;100725.28;5088620;28;20044;-88
2022/03/18 11:18:57;;;;;;;46.63;19.42;;;;;;;-1.67;70.63;100729.31;5091907;28;20047;-88
2022/03/18 11:21:38;;;;;;;43.03;18.77;;;;;;;-1.69;71.32;100719.81;5085562;28;20058;-88
2022/03/18 11:24:12;;;;;;;38.50;15.65;;;;;;;-1.55;71.74;100741.72;5091377;28;20040;-88
2022/03/18 11:26:48;;;;;;;23.08;9.43;;;;;;;-1.50;72.02;100727.41;5092335;28;20054;-84
2022/03/18 11:29:23;;;;;;;23.95;10.43;;;;;;;-1.61;72.05;100700.50;5103264;28;20040;-83
2022/03/18 11:32:26;;;;;;;17.85;8.68;;;;;;;-1.51;72.79;100720.56;5099535;28;20047;-84
2022/03/18 11:35:00;;;;;;;40.10;12.85;;;;;;;-1.65;72.73;100707.16;5083766;28;20269;-83
2022/03/18 11:37:33;;;;;;;24.27;10.15;;;;;;;-1.91;72.08;100693.31;5089645;28;20071;-83
2022/03/18 11:40:30;;;;;;;18.00;7.97;;;;;;;-1.82;72.49;100729.56;5083708;28;20044;-82
2022/03/18 11:43:30;;;;;;;6.63;2.95;;;;;;;-1.99;72.85;100725.44;5087859;28;20045;-85
2022/03/18 11:46:23;;;;;;;7.05;3.78;;;;;;;-2.09;73.20;100733.56;5089408;28;20044;-83
2022/03/18 11:48:55;;;;;;;5.78;4.30;;;;;;;-2.24;73.97;100719.28;5093567;28;20217;-83
2022/03/18 11:51:31;;;;;;;7.70;5.20;;;;;;;-2.07;75.00;100743.03;5098510;28;20112;-82
2022/03/18 11:54:05;;;;;;;7.90;5.35;;;;;;;-2.13;75.10;100721.41;5103093;28;20240;-82
2022/03/18 11:56:46;;;;;;;8.20;5.72;;;;;;;-2.04;75.04;100737.19;5098504;28;20051;-82
2022/03/18 11:59:40;;;;;;;2.95;2.53;;;;;;;-2.04;75.01;100737.19;5096911;28;20044;-83
2022/03/18 12:02:16;;;;;;;4.10;2.67;;;;;;;-2.10;74.31;100736.91;5091548;28;20053;-83
2022/03/18 12:04:52;;;;;;;3.03;2.10;;;;;;;-2.14;74.00;100735.03;5100374;28;20056;-83
2022/03/18 12:07:28;;;;;;;6.57;2.10;;;;;;;-2.26;73.50;100713.22;5102799;28;20254;-83
2022/03/18 12:10:05;;;;;;;3.72;1.95;;;;;;;-2.36;73.10;100713.66;5098941;28;20120;-83
2022/03/18 12:12:39;;;;;;;4.47;1.90;;;;;;;-2.53;72.59;100694.13;5099901;28;20213;-83
2022/03/18 12:15:12;;;;;;;4.80;2.10;;;;;;;-2.32;72.50;100720.66;5088824;28;20324;-83
2022/03/18 12:17:44;;;;;;;2.97;1.90;;;;;;;-2.48;72.54;100718.22;5089386;28;20365;-83
2022/03/18 12:20:17;;;;;;;3.95;2.10;;;;;;;-2.52;72.78;100726.56;5089957;28;20083;-83
2022/03/18 12:22:49;;;;;;;4.18;2.38;;;;;;;-2.57;72.96;100733.16;5096678;28;20588;-83
2022/03/18 12:25:23;;;;;;;4.97;2.05;;;;;;;-2.44;73.16;100730.38;5101263;28;20047;-83